sensor_id;sensor_type;location;lat;lon;timestamp;P1;durP1;ratioP1;P2;durP2;ratioP2
45618;SDS011;31343;47.520;19.144;2023-07-29T00:00:41;2.10;;;1.15;;
45618;SDS011;31343;47.520;19.144;2023-07-29T00:03:07;1.77;;;1.02;;
45618;SDS011;31343;47.520;19.144;2023-07-29T00:05:34;2.17;;;1.27;;
45618;SDS011;31343;47.520;19.144;2023-07-29T00:07:59;2.90;;;1.80;;
45618;SDS011;31343;47.520;19.144;2023-07-29T00:10:25;2.35;;;1.60;;
45618;SDS011;31343;47.520;19.144;2023-07-29T00:12:51;1.85;;;1.23;;
45618;SDS011;31343;47.520;19.144;2023-07-29T00:15:17;2.55;;;1.20;;
45618;SDS011;31343;47.520;19.144;2023-07-29T00:17:43;1.52;;;1.15;;
45618;SDS011;31343;47.520;19.144;2023-07-29T00:20:09;1.50;;;1.05;;
45618;SDS011;31343;47.520;19.144;2023-07-29T00:22:35;3.30;;;1.27;;
45618;SDS011;31343;47.520;19.144;2023-07-29T00:25:01;2.00;;;1.33;;
45618;SDS011;31343;47.520;19.144;2023-07-29T00:27:27;2.22;;;1.00;;
45618;SDS011;31343;47.520;19.144;2023-07-29T00:29:52;2.38;;;1.42;;
45618;SDS011;31343;47.520;19.144;2023-07-29T00:32:18;1.63;;;0.93;;
45618;SDS011;31343;47.520;19.144;2023-07-29T00:34:44;1.98;;;1.10;;
45618;SDS011;31343;47.520;19.144;2023-07-29T00:37:10;2.13;;;1.17;;
45618;SDS011;31343;47.520;19.144;2023-07-29T00:39:36;1.00;;;0.75;;
45618;SDS011;31343;47.520;19.144;2023-07-29T00:42:02;1.83;;;1.23;;
45618;SDS011;31343;47.520;19.144;2023-07-29T00:44:29;2.55;;;1.33;;
45618;SDS011;31343;47.520;19.144;2023-07-29T00:46:56;2.40;;;1.50;;
45618;SDS011;31343;47.520;19.144;2023-07-29T00:49:23;1.75;;;1.15;;
45618;SDS011;31343;47.520;19.144;2023-07-29T00:51:49;2.00;;;1.20;;
45618;SDS011;31343;47.520;19.144;2023-07-29T00:54:15;1.35;;;1.25;;
45618;SDS011;31343;47.520;19.144;2023-07-29T00:56:41;2.15;;;1.38;;
45618;SDS011;31343;47.520;19.144;2023-07-29T00:59:07;1.70;;;1.20;;
45618;SDS011;31343;47.520;19.144;2023-07-29T01:01:33;2.67;;;1.60;;
45618;SDS011;31343;47.520;19.144;2023-07-29T01:03:59;2.45;;;1.40;;
45618;SDS011;31343;47.520;19.144;2023-07-29T01:09:25;2.00;;;1.02;;
45618;SDS011;31343;47.520;19.144;2023-07-29T01:12:09;2.17;;;1.20;;
45618;SDS011;31343;47.520;19.144;2023-07-29T01:18:15;1.27;;;0.90;;
45618;SDS011;31343;47.520;19.144;2023-07-29T01:20:41;2.75;;;1.38;;
45618;SDS011;31343;47.520;19.144;2023-07-29T01:23:08;2.40;;;1.27;;
45618;SDS011;31343;47.520;19.144;2023-07-29T01:25:34;2.13;;;1.17;;
45618;SDS011;31343;47.520;19.144;2023-07-29T01:28:00;1.15;;;0.80;;
45618;SDS011;31343;47.520;19.144;2023-07-29T01:30:29;1.42;;;0.77;;
45618;SDS011;31343;47.520;19.144;2023-07-29T01:38:35;1.40;;;1.00;;
45618;SDS011;31343;47.520;19.144;2023-07-29T01:40:56;2.13;;;1.23;;
45618;SDS011;31343;47.520;19.144;2023-07-29T01:43:27;1.08;;;0.85;;
45618;SDS011;31343;47.520;19.144;2023-07-29T01:45:56;1.00;;;0.90;;
45618;SDS011;31343;47.520;19.144;2023-07-29T01:48:22;3.05;;;1.80;;
45618;SDS011;31343;47.520;19.144;2023-07-29T01:50:48;1.38;;;0.88;;
45618;SDS011;31343;47.520;19.144;2023-07-29T01:53:15;2.30;;;1.52;;
45618;SDS011;31343;47.520;19.144;2023-07-29T01:55:41;1.17;;;0.80;;
45618;SDS011;31343;47.520;19.144;2023-07-29T01:58:07;2.58;;;1.58;;
45618;SDS011;31343;47.520;19.144;2023-07-29T02:00:33;3.00;;;1.63;;
45618;SDS011;31343;47.520;19.144;2023-07-29T02:02:58;3.03;;;1.88;;
45618;SDS011;31343;47.520;19.144;2023-07-29T02:05:24;2.90;;;1.20;;
45618;SDS011;31343;47.520;19.144;2023-07-29T02:07:50;2.08;;;1.00;;
45618;SDS011;31343;47.520;19.144;2023-07-29T02:10:15;1.60;;;1.30;;
45618;SDS011;31343;47.520;19.144;2023-07-29T02:12:41;2.55;;;1.30;;
45618;SDS011;31343;47.520;19.144;2023-07-29T02:15:07;1.33;;;0.70;;
45618;SDS011;31343;47.520;19.144;2023-07-29T02:17:34;1.90;;;1.10;;
45618;SDS011;31343;47.520;19.144;2023-07-29T02:20:00;1.08;;;0.77;;
45618;SDS011;31343;47.520;19.144;2023-07-29T02:22:26;2.17;;;1.27;;
45618;SDS011;31343;47.520;19.144;2023-07-29T02:24:51;1.75;;;1.08;;
45618;SDS011;31343;47.520;19.144;2023-07-29T02:27:17;2.15;;;1.08;;
45618;SDS011;31343;47.520;19.144;2023-07-29T02:29:43;1.05;;;0.80;;
45618;SDS011;31343;47.520;19.144;2023-07-29T02:32:09;1.23;;;0.93;;
45618;SDS011;31343;47.520;19.144;2023-07-29T02:34:34;2.08;;;1.17;;
45618;SDS011;31343;47.520;19.144;2023-07-29T02:37:00;3.67;;;1.85;;
45618;SDS011;31343;47.520;19.144;2023-07-29T02:39:26;2.45;;;1.20;;
45618;SDS011;31343;47.520;19.144;2023-07-29T02:41:52;0.70;;;0.70;;
45618;SDS011;31343;47.520;19.144;2023-07-29T02:44:17;2.03;;;0.98;;
45618;SDS011;31343;47.520;19.144;2023-07-29T02:46:45;2.05;;;1.17;;
45618;SDS011;31343;47.520;19.144;2023-07-29T02:49:10;1.85;;;1.00;;
45618;SDS011;31343;47.520;19.144;2023-07-29T02:51:36;2.65;;;1.25;;
45618;SDS011;31343;47.520;19.144;2023-07-29T02:54:03;3.67;;;1.40;;
45618;SDS011;31343;47.520;19.144;2023-07-29T02:56:28;1.67;;;1.10;;
45618;SDS011;31343;47.520;19.144;2023-07-29T02:58:55;1.20;;;0.80;;
45618;SDS011;31343;47.520;19.144;2023-07-29T03:01:22;2.30;;;1.23;;
45618;SDS011;31343;47.520;19.144;2023-07-29T03:03:50;1.33;;;0.80;;
45618;SDS011;31343;47.520;19.144;2023-07-29T03:06:15;1.17;;;0.80;;
45618;SDS011;31343;47.520;19.144;2023-07-29T03:08:41;2.20;;;1.35;;
45618;SDS011;31343;47.520;19.144;2023-07-29T03:11:08;1.80;;;0.85;;
45618;SDS011;31343;47.520;19.144;2023-07-29T03:13:36;1.50;;;0.98;;
45618;SDS011;31343;47.520;19.144;2023-07-29T03:16:12;2.33;;;1.08;;
45618;SDS011;31343;47.520;19.144;2023-07-29T03:18:40;1.40;;;1.20;;
45618;SDS011;31343;47.520;19.144;2023-07-29T03:21:06;2.88;;;1.52;;
45618;SDS011;31343;47.520;19.144;2023-07-29T03:23:33;2.22;;;1.00;;
45618;SDS011;31343;47.520;19.144;2023-07-29T03:25:59;1.65;;;1.05;;
45618;SDS011;31343;47.520;19.144;2023-07-29T03:28:27;1.45;;;0.90;;
45618;SDS011;31343;47.520;19.144;2023-07-29T03:30:54;1.90;;;1.20;;
45618;SDS011;31343;47.520;19.144;2023-07-29T03:33:21;2.35;;;1.23;;
45618;SDS011;31343;47.520;19.144;2023-07-29T03:35:48;2.25;;;1.30;;
45618;SDS011;31343;47.520;19.144;2023-07-29T03:38:14;1.42;;;0.85;;
45618;SDS011;31343;47.520;19.144;2023-07-29T03:40:40;2.30;;;1.30;;
45618;SDS011;31343;47.520;19.144;2023-07-29T03:43:06;3.00;;;1.40;;
45618;SDS011;31343;47.520;19.144;2023-07-29T03:45:33;2.20;;;1.48;;
45618;SDS011;31343;47.520;19.144;2023-07-29T03:47:59;2.22;;;0.82;;
45618;SDS011;31343;47.520;19.144;2023-07-29T03:50:25;1.38;;;0.98;;
45618;SDS011;31343;47.520;19.144;2023-07-29T03:52:51;1.42;;;0.98;;
45618;SDS011;31343;47.520;19.144;2023-07-29T03:55:17;2.55;;;1.55;;
45618;SDS011;31343;47.520;19.144;2023-07-29T03:57:43;2.38;;;1.52;;
45618;SDS011;31343;47.520;19.144;2023-07-29T04:00:09;2.10;;;1.17;;
45618;SDS011;31343;47.520;19.144;2023-07-29T04:02:35;1.83;;;1.40;;
45618;SDS011;31343;47.520;19.144;2023-07-29T04:05:04;1.20;;;0.85;;
45618;SDS011;31343;47.520;19.144;2023-07-29T04:07:33;0.82;;;0.73;;
45618;SDS011;31343;47.520;19.144;2023-07-29T04:10:00;1.77;;;1.33;;
45618;SDS011;31343;47.520;19.144;2023-07-29T04:12:26;1.42;;;0.95;;
45618;SDS011;31343;47.520;19.144;2023-07-29T04:14:52;2.20;;;1.25;;
45618;SDS011;31343;47.520;19.144;2023-07-29T04:17:18;2.33;;;1.20;;
45618;SDS011;31343;47.520;19.144;2023-07-29T04:19:44;1.80;;;0.90;;
45618;SDS011;31343;47.520;19.144;2023-07-29T04:22:09;1.92;;;1.38;;
45618;SDS011;31343;47.520;19.144;2023-07-29T04:24:35;2.40;;;1.27;;
45618;SDS011;31343;47.520;19.144;2023-07-29T04:27:01;1.85;;;1.33;;
45618;SDS011;31343;47.520;19.144;2023-07-29T04:29:27;2.45;;;1.63;;
45618;SDS011;31343;47.520;19.144;2023-07-29T04:31:52;1.23;;;1.00;;
45618;SDS011;31343;47.520;19.144;2023-07-29T04:34:18;1.98;;;0.90;;
45618;SDS011;31343;47.520;19.144;2023-07-29T04:36:45;2.63;;;1.58;;
45618;SDS011;31343;47.520;19.144;2023-07-29T04:39:11;4.30;;;2.08;;
45618;SDS011;31343;47.520;19.144;2023-07-29T04:41:37;2.17;;;1.83;;
45618;SDS011;31343;47.520;19.144;2023-07-29T04:44:03;2.85;;;1.38;;
45618;SDS011;31343;47.520;19.144;2023-07-29T04:46:29;2.63;;;1.80;;
45618;SDS011;31343;47.520;19.144;2023-07-29T04:48:54;1.80;;;1.45;;
45618;SDS011;31343;47.520;19.144;2023-07-29T04:51:21;1.52;;;1.20;;
45618;SDS011;31343;47.520;19.144;2023-07-29T04:53:47;1.60;;;1.27;;
45618;SDS011;31343;47.520;19.144;2023-07-29T04:56:13;2.60;;;1.48;;
45618;SDS011;31343;47.520;19.144;2023-07-29T04:58:39;2.30;;;1.70;;
45618;SDS011;31343;47.520;19.144;2023-07-29T05:01:05;1.83;;;0.98;;
45618;SDS011;31343;47.520;19.144;2023-07-29T05:03:31;2.20;;;1.67;;
45618;SDS011;31343;47.520;19.144;2023-07-29T05:05:57;2.90;;;2.10;;
45618;SDS011;31343;47.520;19.144;2023-07-29T05:08:24;2.10;;;1.20;;
45618;SDS011;31343;47.520;19.144;2023-07-29T05:10:53;1.95;;;1.23;;
45618;SDS011;31343;47.520;19.144;2023-07-29T05:13:20;2.40;;;1.38;;
45618;SDS011;31343;47.520;19.144;2023-07-29T05:15:47;1.80;;;1.13;;
45618;SDS011;31343;47.520;19.144;2023-07-29T05:18:13;2.67;;;1.50;;
45618;SDS011;31343;47.520;19.144;2023-07-29T05:20:40;1.92;;;1.48;;
45618;SDS011;31343;47.520;19.144;2023-07-29T05:23:05;2.53;;;1.30;;
45618;SDS011;31343;47.520;19.144;2023-07-29T05:25:31;1.65;;;1.08;;
45618;SDS011;31343;47.520;19.144;2023-07-29T05:27:59;1.83;;;1.30;;
45618;SDS011;31343;47.520;19.144;2023-07-29T05:30:29;2.35;;;1.50;;
45618;SDS011;31343;47.520;19.144;2023-07-29T05:32:59;1.50;;;0.90;;
45618;SDS011;31343;47.520;19.144;2023-07-29T05:35:29;1.60;;;1.17;;
45618;SDS011;31343;47.520;19.144;2023-07-29T05:37:55;1.75;;;1.05;;
45618;SDS011;31343;47.520;19.144;2023-07-29T05:40:20;1.75;;;1.20;;
45618;SDS011;31343;47.520;19.144;2023-07-29T05:42:46;1.27;;;0.70;;
45618;SDS011;31343;47.520;19.144;2023-07-29T05:45:13;1.40;;;1.00;;
45618;SDS011;31343;47.520;19.144;2023-07-29T05:47:38;1.45;;;0.93;;
45618;SDS011;31343;47.520;19.144;2023-07-29T05:50:04;1.08;;;0.73;;
45618;SDS011;31343;47.520;19.144;2023-07-29T05:52:33;1.00;;;0.90;;
45618;SDS011;31343;47.520;19.144;2023-07-29T05:55:00;1.73;;;1.00;;
45618;SDS011;31343;47.520;19.144;2023-07-29T05:57:26;1.08;;;0.70;;
45618;SDS011;31343;47.520;19.144;2023-07-29T05:59:52;1.20;;;0.90;;
45618;SDS011;31343;47.520;19.144;2023-07-29T06:02:17;1.08;;;0.70;;
45618;SDS011;31343;47.520;19.144;2023-07-29T06:04:43;0.85;;;0.70;;
45618;SDS011;31343;47.520;19.144;2023-07-29T06:07:09;1.15;;;0.77;;
45618;SDS011;31343;47.520;19.144;2023-07-29T06:09:35;1.73;;;1.15;;
45618;SDS011;31343;47.520;19.144;2023-07-29T06:12:00;1.77;;;0.98;;
45618;SDS011;31343;47.520;19.144;2023-07-29T06:14:26;1.55;;;1.00;;
45618;SDS011;31343;47.520;19.144;2023-07-29T06:16:52;2.22;;;1.17;;
45618;SDS011;31343;47.520;19.144;2023-07-29T06:19:18;1.35;;;0.90;;
45618;SDS011;31343;47.520;19.144;2023-07-29T06:21:45;1.98;;;1.02;;
45618;SDS011;31343;47.520;19.144;2023-07-29T06:24:11;2.00;;;0.85;;
45618;SDS011;31343;47.520;19.144;2023-07-29T06:26:37;3.47;;;1.38;;
45618;SDS011;31343;47.520;19.144;2023-07-29T06:29:03;2.10;;;1.17;;
45618;SDS011;31343;47.520;19.144;2023-07-29T06:31:28;2.03;;;1.00;;
45618;SDS011;31343;47.520;19.144;2023-07-29T06:33:54;2.17;;;1.38;;
45618;SDS011;31343;47.520;19.144;2023-07-29T06:36:20;1.70;;;1.30;;
45618;SDS011;31343;47.520;19.144;2023-07-29T06:38:46;2.45;;;1.38;;
45618;SDS011;31343;47.520;19.144;2023-07-29T06:41:12;2.40;;;1.20;;
45618;SDS011;31343;47.520;19.144;2023-07-29T06:43:38;0.85;;;0.68;;
45618;SDS011;31343;47.520;19.144;2023-07-29T06:46:03;1.67;;;0.90;;
45618;SDS011;31343;47.520;19.144;2023-07-29T06:48:29;1.95;;;1.30;;
45618;SDS011;31343;47.520;19.144;2023-07-29T06:50:55;3.58;;;1.33;;
45618;SDS011;31343;47.520;19.144;2023-07-29T06:53:26;2.47;;;1.30;;
45618;SDS011;31343;47.520;19.144;2023-07-29T06:55:52;1.20;;;0.68;;
45618;SDS011;31343;47.520;19.144;2023-07-29T06:58:18;1.67;;;0.90;;
45618;SDS011;31343;47.520;19.144;2023-07-29T07:00:44;1.33;;;0.90;;
45618;SDS011;31343;47.520;19.144;2023-07-29T07:03:10;2.08;;;1.23;;
45618;SDS011;31343;47.520;19.144;2023-07-29T07:05:36;2.10;;;1.15;;
45618;SDS011;31343;47.520;19.144;2023-07-29T07:08:01;1.80;;;0.98;;
45618;SDS011;31343;47.520;19.144;2023-07-29T07:10:28;1.83;;;1.00;;
45618;SDS011;31343;47.520;19.144;2023-07-29T07:12:54;0.98;;;0.68;;
45618;SDS011;31343;47.520;19.144;2023-07-29T07:15:20;1.50;;;0.73;;
45618;SDS011;31343;47.520;19.144;2023-07-29T07:17:45;1.35;;;0.70;;
45618;SDS011;31343;47.520;19.144;2023-07-29T07:20:11;1.38;;;0.73;;
45618;SDS011;31343;47.520;19.144;2023-07-29T07:22:37;1.30;;;1.02;;
45618;SDS011;31343;47.520;19.144;2023-07-29T07:25:03;2.35;;;1.63;;
45618;SDS011;31343;47.520;19.144;2023-07-29T07:27:29;1.48;;;0.70;;
45618;SDS011;31343;47.520;19.144;2023-07-29T07:29:54;0.73;;;0.63;;
45618;SDS011;31343;47.520;19.144;2023-07-29T07:32:20;1.05;;;0.55;;
45618;SDS011;31343;47.520;19.144;2023-07-29T07:34:46;1.38;;;0.95;;
45618;SDS011;31343;47.520;19.144;2023-07-29T07:37:11;1.25;;;0.73;;
45618;SDS011;31343;47.520;19.144;2023-07-29T07:39:37;0.93;;;0.60;;
45618;SDS011;31343;47.520;19.144;2023-07-29T07:42:03;2.08;;;0.95;;
45618;SDS011;31343;47.520;19.144;2023-07-29T07:44:29;1.83;;;0.88;;
45618;SDS011;31343;47.520;19.144;2023-07-29T07:46:55;1.02;;;0.73;;
45618;SDS011;31343;47.520;19.144;2023-07-29T07:49:21;0.77;;;0.70;;
45618;SDS011;31343;47.520;19.144;2023-07-29T07:51:47;1.23;;;0.70;;
45618;SDS011;31343;47.520;19.144;2023-07-29T07:54:13;1.88;;;0.90;;
45618;SDS011;31343;47.520;19.144;2023-07-29T07:56:39;0.93;;;0.70;;
45618;SDS011;31343;47.520;19.144;2023-07-29T07:59:04;1.52;;;0.75;;
45618;SDS011;31343;47.520;19.144;2023-07-29T08:01:34;1.45;;;0.70;;
45618;SDS011;31343;47.520;19.144;2023-07-29T08:04:01;1.65;;;0.80;;
45618;SDS011;31343;47.520;19.144;2023-07-29T08:06:27;1.30;;;0.82;;
45618;SDS011;31343;47.520;19.144;2023-07-29T08:08:52;1.30;;;0.95;;
45618;SDS011;31343;47.520;19.144;2023-07-29T08:11:18;2.33;;;0.90;;
45618;SDS011;31343;47.520;19.144;2023-07-29T08:13:44;1.13;;;0.65;;
45618;SDS011;31343;47.520;19.144;2023-07-29T08:16:10;1.73;;;0.80;;
45618;SDS011;31343;47.520;19.144;2023-07-29T08:18:35;1.50;;;1.00;;
45618;SDS011;31343;47.520;19.144;2023-07-29T08:21:01;7.63;;;0.90;;
45618;SDS011;31343;47.520;19.144;2023-07-29T08:23:31;1.83;;;0.90;;
45618;SDS011;31343;47.520;19.144;2023-07-29T08:25:58;1.52;;;0.80;;
45618;SDS011;31343;47.520;19.144;2023-07-29T08:28:27;1.33;;;0.63;;
45618;SDS011;31343;47.520;19.144;2023-07-29T08:30:54;1.15;;;0.70;;
45618;SDS011;31343;47.520;19.144;2023-07-29T08:33:20;0.77;;;0.57;;
45618;SDS011;31343;47.520;19.144;2023-07-29T08:35:46;1.88;;;0.90;;
45618;SDS011;31343;47.520;19.144;2023-07-29T08:38:11;1.02;;;0.80;;
45618;SDS011;31343;47.520;19.144;2023-07-29T08:40:38;2.28;;;1.05;;
45618;SDS011;31343;47.520;19.144;2023-07-29T08:43:12;1.75;;;0.90;;
45618;SDS011;31343;47.520;19.144;2023-07-29T08:45:41;1.23;;;0.75;;
45618;SDS011;31343;47.520;19.144;2023-07-29T08:48:10;1.55;;;0.75;;
45618;SDS011;31343;47.520;19.144;2023-07-29T08:50:37;1.02;;;0.60;;
45618;SDS011;31343;47.520;19.144;2023-07-29T08:53:03;1.10;;;0.70;;
45618;SDS011;31343;47.520;19.144;2023-07-29T08:55:33;0.95;;;0.50;;
45618;SDS011;31343;47.520;19.144;2023-07-29T08:57:59;1.52;;;0.98;;
45618;SDS011;31343;47.520;19.144;2023-07-29T09:00:26;1.33;;;0.90;;
45618;SDS011;31343;47.520;19.144;2023-07-29T09:02:52;0.95;;;0.68;;
45618;SDS011;31343;47.520;19.144;2023-07-29T09:05:20;2.03;;;1.10;;
45618;SDS011;31343;47.520;19.144;2023-07-29T09:07:46;0.45;;;0.30;;
45618;SDS011;31343;47.520;19.144;2023-07-29T09:10:14;0.50;;;0.40;;
45618;SDS011;31343;47.520;19.144;2023-07-29T09:12:40;0.85;;;0.63;;
45618;SDS011;31343;47.520;19.144;2023-07-29T09:15:07;0.20;;;0.20;;
45618;SDS011;31343;47.520;19.144;2023-07-29T09:17:33;0.43;;;0.40;;
45618;SDS011;31343;47.520;19.144;2023-07-29T09:19:58;0.70;;;0.50;;
45618;SDS011;31343;47.520;19.144;2023-07-29T09:22:25;0.80;;;0.40;;
45618;SDS011;31343;47.520;19.144;2023-07-29T09:24:53;0.82;;;0.52;;
45618;SDS011;31343;47.520;19.144;2023-07-29T09:27:28;0.90;;;0.52;;
45618;SDS011;31343;47.520;19.144;2023-07-29T09:29:56;0.82;;;0.43;;
45618;SDS011;31343;47.520;19.144;2023-07-29T09:32:23;1.15;;;0.45;;
45618;SDS011;31343;47.520;19.144;2023-07-29T09:34:50;1.02;;;0.70;;
45618;SDS011;31343;47.520;19.144;2023-07-29T09:37:25;0.60;;;0.50;;
45618;SDS011;31343;47.520;19.144;2023-07-29T09:39:51;0.45;;;0.35;;
45618;SDS011;31343;47.520;19.144;2023-07-29T09:42:17;0.30;;;0.30;;
45618;SDS011;31343;47.520;19.144;2023-07-29T09:44:44;1.67;;;0.90;;
45618;SDS011;31343;47.520;19.144;2023-07-29T09:47:18;0.75;;;0.50;;
45618;SDS011;31343;47.520;19.144;2023-07-29T09:49:45;0.90;;;0.68;;
45618;SDS011;31343;47.520;19.144;2023-07-29T09:52:11;0.80;;;0.60;;
45618;SDS011;31343;47.520;19.144;2023-07-29T09:54:37;0.52;;;0.40;;
45618;SDS011;31343;47.520;19.144;2023-07-29T09:57:03;0.57;;;0.45;;
45618;SDS011;31343;47.520;19.144;2023-07-29T09:59:33;1.05;;;0.57;;
45618;SDS011;31343;47.520;19.144;2023-07-29T10:01:59;0.70;;;0.52;;
45618;SDS011;31343;47.520;19.144;2023-07-29T10:04:25;0.65;;;0.50;;
45618;SDS011;31343;47.520;19.144;2023-07-29T10:06:52;0.70;;;0.52;;
45618;SDS011;31343;47.520;19.144;2023-07-29T10:09:18;0.85;;;0.70;;
45618;SDS011;31343;47.520;19.144;2023-07-29T10:11:45;1.08;;;0.52;;
45618;SDS011;31343;47.520;19.144;2023-07-29T10:14:12;0.75;;;0.60;;
45618;SDS011;31343;47.520;19.144;2023-07-29T10:16:41;1.00;;;0.65;;
45618;SDS011;31343;47.520;19.144;2023-07-29T10:19:10;1.00;;;0.60;;
45618;SDS011;31343;47.520;19.144;2023-07-29T10:21:38;1.05;;;0.70;;
45618;SDS011;31343;47.520;19.144;2023-07-29T10:24:05;0.68;;;0.60;;
45618;SDS011;31343;47.520;19.144;2023-07-29T10:26:39;0.68;;;0.50;;
45618;SDS011;31343;47.520;19.144;2023-07-29T10:29:07;0.63;;;0.32;;
45618;SDS011;31343;47.520;19.144;2023-07-29T10:31:37;0.85;;;0.43;;
45618;SDS011;31343;47.520;19.144;2023-07-29T10:34:05;0.45;;;0.43;;
45618;SDS011;31343;47.520;19.144;2023-07-29T10:36:31;0.77;;;0.40;;
45618;SDS011;31343;47.520;19.144;2023-07-29T10:38:57;0.57;;;0.40;;
45618;SDS011;31343;47.520;19.144;2023-07-29T10:41:23;0.47;;;0.47;;
45618;SDS011;31343;47.520;19.144;2023-07-29T10:43:49;0.95;;;0.65;;
45618;SDS011;31343;47.520;19.144;2023-07-29T10:46:15;1.02;;;0.60;;
45618;SDS011;31343;47.520;19.144;2023-07-29T10:48:51;0.68;;;0.50;;
45618;SDS011;31343;47.520;19.144;2023-07-29T10:51:34;0.38;;;0.25;;
45618;SDS011;31343;47.520;19.144;2023-07-29T10:54:11;0.68;;;0.45;;
45618;SDS011;31343;47.520;19.144;2023-07-29T10:56:43;1.05;;;0.73;;
45618;SDS011;31343;47.520;19.144;2023-07-29T11:01:40;0.75;;;0.43;;
45618;SDS011;31343;47.520;19.144;2023-07-29T11:07:24;1.45;;;1.10;;
45618;SDS011;31343;47.520;19.144;2023-07-29T11:12:34;0.30;;;0.30;;
45618;SDS011;31343;47.520;19.144;2023-07-29T11:15:06;1.67;;;0.75;;
45618;SDS011;31343;47.520;19.144;2023-07-29T11:17:41;0.68;;;0.47;;
45618;SDS011;31343;47.520;19.144;2023-07-29T11:20:09;0.75;;;0.40;;
45618;SDS011;31343;47.520;19.144;2023-07-29T11:22:37;1.00;;;0.60;;
45618;SDS011;31343;47.520;19.144;2023-07-29T11:25:03;0.95;;;0.50;;
45618;SDS011;31343;47.520;19.144;2023-07-29T11:27:30;0.80;;;0.40;;
45618;SDS011;31343;47.520;19.144;2023-07-29T11:29:57;0.80;;;0.45;;
45618;SDS011;31343;47.520;19.144;2023-07-29T11:32:23;0.68;;;0.57;;
45618;SDS011;31343;47.520;19.144;2023-07-29T11:34:50;0.60;;;0.50;;
45618;SDS011;31343;47.520;19.144;2023-07-29T11:37:16;0.40;;;0.35;;
45618;SDS011;31343;47.520;19.144;2023-07-29T11:39:42;0.50;;;0.40;;
45618;SDS011;31343;47.520;19.144;2023-07-29T11:42:12;1.20;;;0.60;;
45618;SDS011;31343;47.520;19.144;2023-07-29T11:44:39;1.02;;;0.60;;
45618;SDS011;31343;47.520;19.144;2023-07-29T11:47:09;0.95;;;0.45;;
45618;SDS011;31343;47.520;19.144;2023-07-29T11:49:35;0.52;;;0.38;;
45618;SDS011;31343;47.520;19.144;2023-07-29T11:52:03;0.63;;;0.50;;
45618;SDS011;31343;47.520;19.144;2023-07-29T11:54:30;0.90;;;0.47;;
45618;SDS011;31343;47.520;19.144;2023-07-29T11:56:56;1.05;;;0.50;;
45618;SDS011;31343;47.520;19.144;2023-07-29T11:59:23;0.55;;;0.32;;
45618;SDS011;31343;47.520;19.144;2023-07-29T12:01:48;0.52;;;0.50;;
45618;SDS011;31343;47.520;19.144;2023-07-29T12:04:14;1.05;;;0.57;;
45618;SDS011;31343;47.520;19.144;2023-07-29T12:06:41;0.80;;;0.45;;
45618;SDS011;31343;47.520;19.144;2023-07-29T12:09:08;0.63;;;0.50;;
45618;SDS011;31343;47.520;19.144;2023-07-29T12:11:35;1.20;;;0.65;;
45618;SDS011;31343;47.520;19.144;2023-07-29T12:14:01;1.08;;;0.52;;
45618;SDS011;31343;47.520;19.144;2023-07-29T12:16:27;0.57;;;0.40;;
45618;SDS011;31343;47.520;19.144;2023-07-29T12:18:59;0.98;;;0.50;;
45618;SDS011;31343;47.520;19.144;2023-07-29T12:21:25;0.68;;;0.43;;
45618;SDS011;31343;47.520;19.144;2023-07-29T12:23:51;0.45;;;0.40;;
45618;SDS011;31343;47.520;19.144;2023-07-29T12:26:17;0.47;;;0.40;;
45618;SDS011;31343;47.520;19.144;2023-07-29T12:28:46;0.98;;;0.40;;
45618;SDS011;31343;47.520;19.144;2023-07-29T12:31:12;0.55;;;0.43;;
45618;SDS011;31343;47.520;19.144;2023-07-29T12:33:38;0.85;;;0.52;;
45618;SDS011;31343;47.520;19.144;2023-07-29T12:36:04;1.05;;;0.80;;
45618;SDS011;31343;47.520;19.144;2023-07-29T12:38:30;0.93;;;0.55;;
45618;SDS011;31343;47.520;19.144;2023-07-29T12:40:56;0.70;;;0.60;;
45618;SDS011;31343;47.520;19.144;2023-07-29T12:43:22;0.47;;;0.45;;
45618;SDS011;31343;47.520;19.144;2023-07-29T12:45:50;0.85;;;0.50;;
45618;SDS011;31343;47.520;19.144;2023-07-29T12:48:17;0.85;;;0.50;;
45618;SDS011;31343;47.520;19.144;2023-07-29T12:50:43;0.47;;;0.40;;
45618;SDS011;31343;47.520;19.144;2023-07-29T12:53:09;0.50;;;0.45;;
45618;SDS011;31343;47.520;19.144;2023-07-29T12:55:38;0.63;;;0.50;;
45618;SDS011;31343;47.520;19.144;2023-07-29T12:58:04;0.85;;;0.55;;
45618;SDS011;31343;47.520;19.144;2023-07-29T13:00:30;0.85;;;0.60;;
45618;SDS011;31343;47.520;19.144;2023-07-29T13:02:55;0.95;;;0.68;;
45618;SDS011;31343;47.520;19.144;2023-07-29T13:05:21;1.25;;;0.63;;
45618;SDS011;31343;47.520;19.144;2023-07-29T13:07:47;0.52;;;0.47;;
45618;SDS011;31343;47.520;19.144;2023-07-29T13:10:13;1.27;;;0.55;;
45618;SDS011;31343;47.520;19.144;2023-07-29T13:12:39;0.93;;;0.38;;
45618;SDS011;31343;47.520;19.144;2023-07-29T13:15:06;0.60;;;0.43;;
45618;SDS011;31343;47.520;19.144;2023-07-29T13:17:33;1.50;;;0.82;;
45618;SDS011;31343;47.520;19.144;2023-07-29T13:19:59;0.52;;;0.43;;
45618;SDS011;31343;47.520;19.144;2023-07-29T13:22:24;1.23;;;0.82;;
45618;SDS011;31343;47.520;19.144;2023-07-29T13:24:50;0.73;;;0.40;;
45618;SDS011;31343;47.520;19.144;2023-07-29T13:27:16;1.33;;;0.77;;
45618;SDS011;31343;47.520;19.144;2023-07-29T13:29:42;0.50;;;0.50;;
45618;SDS011;31343;47.520;19.144;2023-07-29T13:32:08;0.80;;;0.77;;
45618;SDS011;31343;47.520;19.144;2023-07-29T13:34:34;1.45;;;0.70;;
45618;SDS011;31343;47.520;19.144;2023-07-29T13:37:00;0.82;;;0.50;;
45618;SDS011;31343;47.520;19.144;2023-07-29T13:39:26;0.63;;;0.55;;
45618;SDS011;31343;47.520;19.144;2023-07-29T13:41:52;0.70;;;0.40;;
45618;SDS011;31343;47.520;19.144;2023-07-29T13:44:19;0.30;;;0.30;;
45618;SDS011;31343;47.520;19.144;2023-07-29T13:46:45;0.73;;;0.63;;
45618;SDS011;31343;47.520;19.144;2023-07-29T13:49:11;0.70;;;0.50;;
45618;SDS011;31343;47.520;19.144;2023-07-29T13:51:37;0.80;;;0.50;;
45618;SDS011;31343;47.520;19.144;2023-07-29T13:54:02;1.20;;;0.57;;
45618;SDS011;31343;47.520;19.144;2023-07-29T13:56:28;1.23;;;0.65;;
45618;SDS011;31343;47.520;19.144;2023-07-29T13:58:54;0.90;;;0.60;;
45618;SDS011;31343;47.520;19.144;2023-07-29T14:01:19;0.75;;;0.68;;
45618;SDS011;31343;47.520;19.144;2023-07-29T14:03:45;0.93;;;0.45;;
45618;SDS011;31343;47.520;19.144;2023-07-29T14:06:11;1.50;;;0.77;;
45618;SDS011;31343;47.520;19.144;2023-07-29T14:08:37;1.05;;;0.63;;
45618;SDS011;31343;47.520;19.144;2023-07-29T14:11:05;0.63;;;0.50;;
45618;SDS011;31343;47.520;19.144;2023-07-29T14:13:31;0.82;;;0.52;;
45618;SDS011;31343;47.520;19.144;2023-07-29T14:15:57;1.10;;;0.63;;
45618;SDS011;31343;47.520;19.144;2023-07-29T14:18:24;0.95;;;0.47;;
45618;SDS011;31343;47.520;19.144;2023-07-29T14:20:50;0.43;;;0.40;;
45618;SDS011;31343;47.520;19.144;2023-07-29T14:23:16;1.48;;;0.75;;
45618;SDS011;31343;47.520;19.144;2023-07-29T14:25:42;0.88;;;0.50;;
45618;SDS011;31343;47.520;19.144;2023-07-29T14:28:07;0.88;;;0.65;;
45618;SDS011;31343;47.520;19.144;2023-07-29T14:30:33;0.65;;;0.40;;
45618;SDS011;31343;47.520;19.144;2023-07-29T14:33:00;0.50;;;0.50;;
45618;SDS011;31343;47.520;19.144;2023-07-29T14:35:26;1.90;;;0.90;;
45618;SDS011;31343;47.520;19.144;2023-07-29T14:37:52;0.82;;;0.50;;
45618;SDS011;31343;47.520;19.144;2023-07-29T14:40:17;1.00;;;0.68;;
45618;SDS011;31343;47.520;19.144;2023-07-29T14:42:43;0.60;;;0.60;;
45618;SDS011;31343;47.520;19.144;2023-07-29T14:45:09;0.57;;;0.55;;
45618;SDS011;31343;47.520;19.144;2023-07-29T14:47:35;0.65;;;0.47;;
45618;SDS011;31343;47.520;19.144;2023-07-29T14:50:01;0.98;;;0.60;;